Yale, OK (74085)

4:36 PM CDT on September 03, 2015 (GMT -0500)
Western Heights | | Change Station
CLOSE
Current Station
Personal Weather Station
Location: Yale, OK
Elevation: 886 ft
Nearby Weather Stations

Elev 886 ft 36.12 °N, 96.71 °W | Updated 41 seconds ago

Clear
Clear
91.0 °F
Feels Like 93 °F
N
13.0
Wind Variable Wind from SE
Gusts 17.0 mph

Today
High -- | Low -- °F
--% Chance of Precip.
Yesterday
High -- | Low -- °F
Precip. -- in
6:59 AM 7:51 PM
Waning Gibbous, 66% visible
Pressure 29.90 in
Visibility -9999.0 miles
Clouds Scattered Clouds 6000 ft
Heat Index 93 °F
Dew Point 65 °F
Humidity 43%
Rainfall Not available.
Snow Depth Not available.
UV 5 out of 12
Pollen 9.90 out of 12
Air Quality Not available.
Flu Activity Not available.
METAR KCUH 032115Z AUTO 15004KT SCT060 32/21 A2990 RMK AO2 PWINO
Pressure 29.90 in
Visibility -9999.0 miles
Clouds Scattered Clouds 6000 ft
Heat Index 93 °F
Dew Point 65 °F
Humidity 43%
Rainfall Not available.
Snow Depth Not available.
UV 5 out of 12
Pollen 9.90 out of 12
Air Quality Not available.
Flu Activity Not available.
METAR KCUH 032115Z AUTO 15004KT SCT060 32/21 A2990 RMK AO2 PWINO

10-Day Weather Forecast

×

Almanac

Astronomy

Sep. 03, 2015 Rise Set
Actual Time
Civil Twilight
Nautical Twilight
Astronomical Twilight
Moon
Length of Visible Light
Length of Day
Tomorrow will be .
, % of the Moon is Illuminated

Today's Extremes

State Highs State Lows

Community

WunderPhotos

Upload Photos

1,852,043 photos uploaded!

WunderBlogs® & News

Nearby

Air Quality

  Air Quality AQ Index Pollutant
Not available.

Snow Depth

Station Depth Elevation

Earthquake Activity

City Distance Mag. Time & Date
Minimum magnitude displayed is 2.5.

Coastal Water Temperatures

Place Temperature

Stations

Nearby Weather Stations

Station Location Temp. Windchill Dew Point Humidity Wind Precip. Elev Updated Type